首页
METAR-TAF:

METAR-TAF

机场 :

弗拉格斯塔夫, 亞利桑那州, 美国

纬度: 35-08-25N, 经度: 111-40-20W, 海拔: 2137米

当前天气观测

该预报发布于22分钟前的05:09 UTC
风速7节,风向南转西南
温度 3°C
湿度 100%
气压 1021 hPa
能見度: 0.4公里

METAR: KFLG 080509Z AUTO 20007KT 1/4SM FG VV002 03/03 A3016 RMK AO2 T00330033

时间: 22:31 (05:31 UTC)

预报

该预报发布于15分钟前的05:16 UTC
预报有效从08日的 05点(UTC)到 08日的 24点(UTC)
风速7节,风向西南
能見度: 3.2公里
散云层高于800英尺
阴天层高于1500英尺
轻雾
短暂存在
从 08日的 05点(UTC)到 08日的 09点(UTC)
能見度: 0.8公里
阴天层高于200英尺
小阵雨, 雾
从 08日的 0900点(UTC)
风速7节,风向西南
能見度: 4.8公里
散云层高于500英尺
阴天层高于1200英尺
小阵雨, 轻雾
从 08日的 1600点(UTC)
风速13节,风向西南,有时为23节阵风
能見度: 9.7公里
散云层高于700英尺
阴天层高于1200英尺
小阵雨, 轻雾

TAF: KFLG 080516Z 0805/0824 22007KT 2SM BR SCT008 OVC015 TEMPO 0805/0809 1/2SM -SHRA FG OVC002 FM080900 23007KT 3SM -SHRA BR SCT005 OVC012 FM081600 23013G23KT 6SM -SHRA BR SCT007 OVC012

超过4000个机场的气象观测和天气预报(METAR&TAF报告)。

可查询的气象台以黄色和红色小点在地图上表示。

将鼠标移到小点上方,可查看气象台名称。

然后点击查看天气观测和预报。

如需切换地图:点击带黑十字的绿色按钮放大地图;点击带横线的绿色按钮缩小地图;或者点击绿色箭头查看邻近地区的地图。


METAR-TAF: